sensor_id;sensor_type;location;lat;lon;timestamp;P1;P2;P0
73623;PMS5003;61921;53.226;-1.296;2022-07-03T00:01:28;4;3;
73623;PMS5003;61921;53.226;-1.296;2022-07-03T00:03:53;3;3;
73623;PMS5003;61921;53.226;-1.296;2022-07-03T00:06:19;3;3;
73623;PMS5003;61921;53.226;-1.296;2022-07-03T00:08:44;3;3;
73623;PMS5003;61921;53.226;-1.296;2022-07-03T00:11:09;4;2;
73623;PMS5003;61921;53.226;-1.296;2022-07-03T00:13:34;3;3;
73623;PMS5003;61921;53.226;-1.296;2022-07-03T00:15:59;3;2;
73623;PMS5003;61921;53.226;-1.296;2022-07-03T00:18:24;4;4;
73623;PMS5003;61921;53.226;-1.296;2022-07-03T00:20:49;5;2;
73623;PMS5003;61921;53.226;-1.296;2022-07-03T00:23:16;3;2;
73623;PMS5003;61921;53.226;-1.296;2022-07-03T00:25:39;3;3;
73623;PMS5003;61921;53.226;-1.296;2022-07-03T00:28:04;3;3;
73623;PMS5003;61921;53.226;-1.296;2022-07-03T00:30:29;3;3;
73623;PMS5003;61921;53.226;-1.296;2022-07-03T00:32:54;3;1;
73623;PMS5003;61921;53.226;-1.296;2022-07-03T00:35:19;2;2;
73623;PMS5003;61921;53.226;-1.296;2022-07-03T00:37:44;4;3;
73623;PMS5003;61921;53.226;-1.296;2022-07-03T00:40:10;2;2;
73623;PMS5003;61921;53.226;-1.296;2022-07-03T00:42:34;2;2;
73623;PMS5003;61921;53.226;-1.296;2022-07-03T00:44:59;2;2;
73623;PMS5003;61921;53.226;-1.296;2022-07-03T00:47:25;3;3;
73623;PMS5003;61921;53.226;-1.296;2022-07-03T00:49:52;1;1;
73623;PMS5003;61921;53.226;-1.296;2022-07-03T00:52:16;1;1;
73623;PMS5003;61921;53.226;-1.296;2022-07-03T00:54:42;2;2;
73623;PMS5003;61921;53.226;-1.296;2022-07-03T00:57:05;3;2;
73623;PMS5003;61921;53.226;-1.296;2022-07-03T00:59:30;2;2;
73623;PMS5003;61921;53.226;-1.296;2022-07-03T01:01:57;2;2;
73623;PMS5003;61921;53.226;-1.296;2022-07-03T01:04:21;2;2;
73623;PMS5003;61921;53.226;-1.296;2022-07-03T01:06:49;1;1;
73623;PMS5003;61921;53.226;-1.296;2022-07-03T01:09:10;1;1;
73623;PMS5003;61921;53.226;-1.296;2022-07-03T01:11:37;2;2;
73623;PMS5003;61921;53.226;-1.296;2022-07-03T01:14:03;1;1;
73623;PMS5003;61921;53.226;-1.296;2022-07-03T01:16:27;2;2;
73623;PMS5003;61921;53.226;-1.296;2022-07-03T01:18:51;1;1;
73623;PMS5003;61921;53.226;-1.296;2022-07-03T01:21:16;3;3;
73623;PMS5003;61921;53.226;-1.296;2022-07-03T01:26:05;2;2;
73623;PMS5003;61921;53.226;-1.296;2022-07-03T01:28:30;3;3;
73623;PMS5003;61921;53.226;-1.296;2022-07-03T01:30:56;3;2;
73623;PMS5003;61921;53.226;-1.296;2022-07-03T01:33:22;2;2;
73623;PMS5003;61921;53.226;-1.296;2022-07-03T01:35:47;2;2;
73623;PMS5003;61921;53.226;-1.296;2022-07-03T01:38:12;2;2;
73623;PMS5003;61921;53.226;-1.296;2022-07-03T01:40:37;2;2;
73623;PMS5003;61921;53.226;-1.296;2022-07-03T01:43:02;3;2;
73623;PMS5003;61921;53.226;-1.296;2022-07-03T01:45:26;2;2;
73623;PMS5003;61921;53.226;-1.296;2022-07-03T01:47:52;2;2;
73623;PMS5003;61921;53.226;-1.296;2022-07-03T01:50:16;2;1;
73623;PMS5003;61921;53.226;-1.296;2022-07-03T01:52:42;2;1;
73623;PMS5003;61921;53.226;-1.296;2022-07-03T01:55:07;1;1;
73623;PMS5003;61921;53.226;-1.296;2022-07-03T01:57:34;2;2;
73623;PMS5003;61921;53.226;-1.296;2022-07-03T01:59:58;1;1;
73623;PMS5003;61921;53.226;-1.296;2022-07-03T02:02:24;2;2;
73623;PMS5003;61921;53.226;-1.296;2022-07-03T02:04:54;2;2;
73623;PMS5003;61921;53.226;-1.296;2022-07-03T02:07:17;3;3;
73623;PMS5003;61921;53.226;-1.296;2022-07-03T02:09:40;1;1;
73623;PMS5003;61921;53.226;-1.296;2022-07-03T02:12:02;2;2;
73623;PMS5003;61921;53.226;-1.296;2022-07-03T02:14:31;2;2;
73623;PMS5003;61921;53.226;-1.296;2022-07-03T02:16:54;1;1;
73623;PMS5003;61921;53.226;-1.296;2022-07-03T02:19:18;1;1;
73623;PMS5003;61921;53.226;-1.296;2022-07-03T02:21:47;2;1;
73623;PMS5003;61921;53.226;-1.296;2022-07-03T02:24:13;4;2;
73623;PMS5003;61921;53.226;-1.296;2022-07-03T02:26:33;4;3;
73623;PMS5003;61921;53.226;-1.296;2022-07-03T02:28:58;3;2;
73623;PMS5003;61921;53.226;-1.296;2022-07-03T02:31:24;1;1;
73623;PMS5003;61921;53.226;-1.296;2022-07-03T02:33:48;1;1;
73623;PMS5003;61921;53.226;-1.296;2022-07-03T02:36:13;3;3;
73623;PMS5003;61921;53.226;-1.296;2022-07-03T02:38:38;2;2;
73623;PMS5003;61921;53.226;-1.296;2022-07-03T02:41:03;2;2;
73623;PMS5003;61921;53.226;-1.296;2022-07-03T02:43:31;1;1;
73623;PMS5003;61921;53.226;-1.296;2022-07-03T02:45:56;0;0;
73623;PMS5003;61921;53.226;-1.296;2022-07-03T02:48:21;0;0;
73623;PMS5003;61921;53.226;-1.296;2022-07-03T02:50:43;1;1;
73623;PMS5003;61921;53.226;-1.296;2022-07-03T02:53:11;2;2;
73623;PMS5003;61921;53.226;-1.296;2022-07-03T02:55:38;3;1;
73623;PMS5003;61921;53.226;-1.296;2022-07-03T02:58:01;1;1;
73623;PMS5003;61921;53.226;-1.296;2022-07-03T03:00:23;1;1;
73623;PMS5003;61921;53.226;-1.296;2022-07-03T03:02:52;1;1;
73623;PMS5003;61921;53.226;-1.296;2022-07-03T03:05:15;3;2;
73623;PMS5003;61921;53.226;-1.296;2022-07-03T03:07:40;2;1;
73623;PMS5003;61921;53.226;-1.296;2022-07-03T03:10:04;1;1;
73623;PMS5003;61921;53.226;-1.296;2022-07-03T03:12:30;1;0;
73623;PMS5003;61921;53.226;-1.296;2022-07-03T03:14:54;1;1;
73623;PMS5003;61921;53.226;-1.296;2022-07-03T03:17:19;1;1;
73623;PMS5003;61921;53.226;-1.296;2022-07-03T03:19:45;2;2;
73623;PMS5003;61921;53.226;-1.296;2022-07-03T03:22:12;1;1;
73623;PMS5003;61921;53.226;-1.296;2022-07-03T03:24:34;3;2;
73623;PMS5003;61921;53.226;-1.296;2022-07-03T03:26:59;2;2;
73623;PMS5003;61921;53.226;-1.296;2022-07-03T03:29:24;2;2;
73623;PMS5003;61921;53.226;-1.296;2022-07-03T03:31:49;0;0;
73623;PMS5003;61921;53.226;-1.296;2022-07-03T03:34:15;1;1;
73623;PMS5003;61921;53.226;-1.296;2022-07-03T03:36:39;2;2;
73623;PMS5003;61921;53.226;-1.296;2022-07-03T03:39:04;2;2;
73623;PMS5003;61921;53.226;-1.296;2022-07-03T03:41:29;1;1;
73623;PMS5003;61921;53.226;-1.296;2022-07-03T03:43:54;1;1;
73623;PMS5003;61921;53.226;-1.296;2022-07-03T03:46:19;3;2;
73623;PMS5003;61921;53.226;-1.296;2022-07-03T03:48:45;0;0;
73623;PMS5003;61921;53.226;-1.296;2022-07-03T03:51:10;1;1;
73623;PMS5003;61921;53.226;-1.296;2022-07-03T03:53:35;1;1;
73623;PMS5003;61921;53.226;-1.296;2022-07-03T03:56:00;1;1;
73623;PMS5003;61921;53.226;-1.296;2022-07-03T03:58:25;2;1;
73623;PMS5003;61921;53.226;-1.296;2022-07-03T04:00:50;1;1;
73623;PMS5003;61921;53.226;-1.296;2022-07-03T04:03:15;1;1;
73623;PMS5003;61921;53.226;-1.296;2022-07-03T04:05:40;1;1;
73623;PMS5003;61921;53.226;-1.296;2022-07-03T04:08:05;2;2;
73623;PMS5003;61921;53.226;-1.296;2022-07-03T04:10:30;1;1;
73623;PMS5003;61921;53.226;-1.296;2022-07-03T04:12:55;2;1;
73623;PMS5003;61921;53.226;-1.296;2022-07-03T04:15:20;0;0;
73623;PMS5003;61921;53.226;-1.296;2022-07-03T04:17:45;1;1;
73623;PMS5003;61921;53.226;-1.296;2022-07-03T04:20:11;2;2;
73623;PMS5003;61921;53.226;-1.296;2022-07-03T04:22:36;1;1;
73623;PMS5003;61921;53.226;-1.296;2022-07-03T04:25:01;0;0;
73623;PMS5003;61921;53.226;-1.296;2022-07-03T04:27:26;2;2;
73623;PMS5003;61921;53.226;-1.296;2022-07-03T04:29:51;5;4;
73623;PMS5003;61921;53.226;-1.296;2022-07-03T04:32:16;1;1;
73623;PMS5003;61921;53.226;-1.296;2022-07-03T04:34:41;0;0;
73623;PMS5003;61921;53.226;-1.296;2022-07-03T04:37:06;1;1;
73623;PMS5003;61921;53.226;-1.296;2022-07-03T04:39:31;3;1;
73623;PMS5003;61921;53.226;-1.296;2022-07-03T04:41:56;1;1;
73623;PMS5003;61921;53.226;-1.296;2022-07-03T04:44:21;1;1;
73623;PMS5003;61921;53.226;-1.296;2022-07-03T04:46:46;1;1;
73623;PMS5003;61921;53.226;-1.296;2022-07-03T04:49:11;1;1;
73623;PMS5003;61921;53.226;-1.296;2022-07-03T04:51:36;1;1;
73623;PMS5003;61921;53.226;-1.296;2022-07-03T04:54:01;2;2;
73623;PMS5003;61921;53.226;-1.296;2022-07-03T04:56:26;1;1;
73623;PMS5003;61921;53.226;-1.296;2022-07-03T04:58:52;0;0;
73623;PMS5003;61921;53.226;-1.296;2022-07-03T05:01:17;0;0;
73623;PMS5003;61921;53.226;-1.296;2022-07-03T05:03:42;0;0;
73623;PMS5003;61921;53.226;-1.296;2022-07-03T05:06:07;1;1;
73623;PMS5003;61921;53.226;-1.296;2022-07-03T05:08:32;2;1;
73623;PMS5003;61921;53.226;-1.296;2022-07-03T05:10:57;1;1;
73623;PMS5003;61921;53.226;-1.296;2022-07-03T05:13:22;0;0;
73623;PMS5003;61921;53.226;-1.296;2022-07-03T05:15:47;1;1;
73623;PMS5003;61921;53.226;-1.296;2022-07-03T05:18:12;1;1;
73623;PMS5003;61921;53.226;-1.296;2022-07-03T05:20:37;1;1;
73623;PMS5003;61921;53.226;-1.296;2022-07-03T05:23:02;1;1;
73623;PMS5003;61921;53.226;-1.296;2022-07-03T05:25:28;2;1;
73623;PMS5003;61921;53.226;-1.296;2022-07-03T05:27:53;1;1;
73623;PMS5003;61921;53.226;-1.296;2022-07-03T05:30:19;2;2;
73623;PMS5003;61921;53.226;-1.296;2022-07-03T05:32:43;0;0;
73623;PMS5003;61921;53.226;-1.296;2022-07-03T05:35:09;0;0;
73623;PMS5003;61921;53.226;-1.296;2022-07-03T05:37:34;2;2;
73623;PMS5003;61921;53.226;-1.296;2022-07-03T05:39:59;1;1;
73623;PMS5003;61921;53.226;-1.296;2022-07-03T05:42:24;1;1;
73623;PMS5003;61921;53.226;-1.296;2022-07-03T05:44:49;1;1;
73623;PMS5003;61921;53.226;-1.296;2022-07-03T05:47:14;1;1;
73623;PMS5003;61921;53.226;-1.296;2022-07-03T05:49:39;3;1;
73623;PMS5003;61921;53.226;-1.296;2022-07-03T05:52:04;1;1;
73623;PMS5003;61921;53.226;-1.296;2022-07-03T05:54:29;2;1;
73623;PMS5003;61921;53.226;-1.296;2022-07-03T05:56:54;1;1;
73623;PMS5003;61921;53.226;-1.296;2022-07-03T05:59:19;0;0;
73623;PMS5003;61921;53.226;-1.296;2022-07-03T06:01:44;1;1;
73623;PMS5003;61921;53.226;-1.296;2022-07-03T06:04:09;2;2;
73623;PMS5003;61921;53.226;-1.296;2022-07-03T06:06:34;1;1;
73623;PMS5003;61921;53.226;-1.296;2022-07-03T06:08:59;1;1;
73623;PMS5003;61921;53.226;-1.296;2022-07-03T06:11:25;1;1;
73623;PMS5003;61921;53.226;-1.296;2022-07-03T06:13:50;0;0;
73623;PMS5003;61921;53.226;-1.296;2022-07-03T06:16:15;1;1;
73623;PMS5003;61921;53.226;-1.296;2022-07-03T06:18:40;1;1;
73623;PMS5003;61921;53.226;-1.296;2022-07-03T06:21:05;0;0;
73623;PMS5003;61921;53.226;-1.296;2022-07-03T06:23:30;0;0;
73623;PMS5003;61921;53.226;-1.296;2022-07-03T06:25:55;2;1;
73623;PMS5003;61921;53.226;-1.296;2022-07-03T06:28:20;0;0;
73623;PMS5003;61921;53.226;-1.296;2022-07-03T06:30:45;0;0;
73623;PMS5003;61921;53.226;-1.296;2022-07-03T06:33:10;0;0;
73623;PMS5003;61921;53.226;-1.296;2022-07-03T06:35:35;1;0;
73623;PMS5003;61921;53.226;-1.296;2022-07-03T06:38:01;0;0;
73623;PMS5003;61921;53.226;-1.296;2022-07-03T06:40:25;0;0;
73623;PMS5003;61921;53.226;-1.296;2022-07-03T06:42:50;1;1;
73623;PMS5003;61921;53.226;-1.296;2022-07-03T06:45:16;0;0;
73623;PMS5003;61921;53.226;-1.296;2022-07-03T06:47:41;1;1;
73623;PMS5003;61921;53.226;-1.296;2022-07-03T06:50:07;0;0;
73623;PMS5003;61921;53.226;-1.296;2022-07-03T06:52:31;2;2;
73623;PMS5003;61921;53.226;-1.296;2022-07-03T06:54:56;1;1;
73623;PMS5003;61921;53.226;-1.296;2022-07-03T06:57:21;0;0;
73623;PMS5003;61921;53.226;-1.296;2022-07-03T06:59:46;1;0;
73623;PMS5003;61921;53.226;-1.296;2022-07-03T07:02:11;1;1;
73623;PMS5003;61921;53.226;-1.296;2022-07-03T07:04:37;1;1;
73623;PMS5003;61921;53.226;-1.296;2022-07-03T07:07:02;0;0;
73623;PMS5003;61921;53.226;-1.296;2022-07-03T07:09:27;2;1;
73623;PMS5003;61921;53.226;-1.296;2022-07-03T07:11:52;1;1;
73623;PMS5003;61921;53.226;-1.296;2022-07-03T07:14:17;0;0;
73623;PMS5003;61921;53.226;-1.296;2022-07-03T07:16:42;2;2;
73623;PMS5003;61921;53.226;-1.296;2022-07-03T07:19:07;2;2;
73623;PMS5003;61921;53.226;-1.296;2022-07-03T07:21:32;1;1;
73623;PMS5003;61921;53.226;-1.296;2022-07-03T07:23:58;1;1;
73623;PMS5003;61921;53.226;-1.296;2022-07-03T07:26:23;3;1;
73623;PMS5003;61921;53.226;-1.296;2022-07-03T07:28:48;3;1;
73623;PMS5003;61921;53.226;-1.296;2022-07-03T07:31:13;0;0;
73623;PMS5003;61921;53.226;-1.296;2022-07-03T07:33:38;1;1;
73623;PMS5003;61921;53.226;-1.296;2022-07-03T07:36:03;2;2;
73623;PMS5003;61921;53.226;-1.296;2022-07-03T07:38:28;1;1;
73623;PMS5003;61921;53.226;-1.296;2022-07-03T07:40:53;1;1;
73623;PMS5003;61921;53.226;-1.296;2022-07-03T07:43:18;0;0;
73623;PMS5003;61921;53.226;-1.296;2022-07-03T07:45:43;2;1;
73623;PMS5003;61921;53.226;-1.296;2022-07-03T07:48:08;2;1;
73623;PMS5003;61921;53.226;-1.296;2022-07-03T07:50:33;1;1;
73623;PMS5003;61921;53.226;-1.296;2022-07-03T07:52:58;0;0;
73623;PMS5003;61921;53.226;-1.296;2022-07-03T07:55:24;1;1;
73623;PMS5003;61921;53.226;-1.296;2022-07-03T07:57:49;0;0;
73623;PMS5003;61921;53.226;-1.296;2022-07-03T08:00:16;1;1;
73623;PMS5003;61921;53.226;-1.296;2022-07-03T08:02:39;1;1;
73623;PMS5003;61921;53.226;-1.296;2022-07-03T08:05:04;5;5;
73623;PMS5003;61921;53.226;-1.296;2022-07-03T08:07:29;8;7;
73623;PMS5003;61921;53.226;-1.296;2022-07-03T08:09:54;8;6;
73623;PMS5003;61921;53.226;-1.296;2022-07-03T08:12:19;7;7;
73623;PMS5003;61921;53.226;-1.296;2022-07-03T08:14:44;7;6;
73623;PMS5003;61921;53.226;-1.296;2022-07-03T08:17:09;7;6;
73623;PMS5003;61921;53.226;-1.296;2022-07-03T08:19:34;7;7;
73623;PMS5003;61921;53.226;-1.296;2022-07-03T08:21:59;8;8;
73623;PMS5003;61921;53.226;-1.296;2022-07-03T08:24:24;8;8;
73623;PMS5003;61921;53.226;-1.296;2022-07-03T08:26:50;8;8;
73623;PMS5003;61921;53.226;-1.296;2022-07-03T08:29:15;6;6;
73623;PMS5003;61921;53.226;-1.296;2022-07-03T08:31:40;7;6;
73623;PMS5003;61921;53.226;-1.296;2022-07-03T08:34:05;6;6;
73623;PMS5003;61921;53.226;-1.296;2022-07-03T08:36:30;7;5;
73623;PMS5003;61921;53.226;-1.296;2022-07-03T08:38:55;7;7;
73623;PMS5003;61921;53.226;-1.296;2022-07-03T08:41:20;4;4;
73623;PMS5003;61921;53.226;-1.296;2022-07-03T08:43:45;6;6;
73623;PMS5003;61921;53.226;-1.296;2022-07-03T08:46:11;6;6;
73623;PMS5003;61921;53.226;-1.296;2022-07-03T08:48:37;6;6;
73623;PMS5003;61921;53.226;-1.296;2022-07-03T08:51:01;5;5;
73623;PMS5003;61921;53.226;-1.296;2022-07-03T08:53:26;4;4;
73623;PMS5003;61921;53.226;-1.296;2022-07-03T08:55:51;7;5;
73623;PMS5003;61921;53.226;-1.296;2022-07-03T08:58:16;7;7;
73623;PMS5003;61921;53.226;-1.296;2022-07-03T09:00:41;8;8;
73623;PMS5003;61921;53.226;-1.296;2022-07-03T09:03:09;6;6;
73623;PMS5003;61921;53.226;-1.296;2022-07-03T09:05:32;8;8;
73623;PMS5003;61921;53.226;-1.296;2022-07-03T09:07:57;11;8;
73623;PMS5003;61921;53.226;-1.296;2022-07-03T09:10:22;10;8;
73623;PMS5003;61921;53.226;-1.296;2022-07-03T09:12:47;9;7;
73623;PMS5003;61921;53.226;-1.296;2022-07-03T09:15:12;6;6;
73623;PMS5003;61921;53.226;-1.296;2022-07-03T09:17:37;7;7;
73623;PMS5003;61921;53.226;-1.296;2022-07-03T09:20:03;7;7;
73623;PMS5003;61921;53.226;-1.296;2022-07-03T09:22:28;6;6;
73623;PMS5003;61921;53.226;-1.296;2022-07-03T09:24:53;8;8;
73623;PMS5003;61921;53.226;-1.296;2022-07-03T09:27:19;9;8;
73623;PMS5003;61921;53.226;-1.296;2022-07-03T09:32:08;9;8;
73623;PMS5003;61921;53.226;-1.296;2022-07-03T09:34:33;9;9;
73623;PMS5003;61921;53.226;-1.296;2022-07-03T09:36:59;6;6;
73623;PMS5003;61921;53.226;-1.296;2022-07-03T09:39:24;7;7;
73623;PMS5003;61921;53.226;-1.296;2022-07-03T09:41:50;9;8;
73623;PMS5003;61921;53.226;-1.296;2022-07-03T09:44:15;11;8;
73623;PMS5003;61921;53.226;-1.296;2022-07-03T09:46:40;8;8;
73623;PMS5003;61921;53.226;-1.296;2022-07-03T09:49:05;11;9;
73623;PMS5003;61921;53.226;-1.296;2022-07-03T09:51:33;7;6;
73623;PMS5003;61921;53.226;-1.296;2022-07-03T09:53:56;7;6;
73623;PMS5003;61921;53.226;-1.296;2022-07-03T09:56:21;8;8;
73623;PMS5003;61921;53.226;-1.296;2022-07-03T10:01:16;8;7;
73623;PMS5003;61921;53.226;-1.296;2022-07-03T10:03:36;7;6;
73623;PMS5003;61921;53.226;-1.296;2022-07-03T10:06:02;5;5;
73623;PMS5003;61921;53.226;-1.296;2022-07-03T10:08:26;4;4;
73623;PMS5003;61921;53.226;-1.296;2022-07-03T10:10:51;6;6;
73623;PMS5003;61921;53.226;-1.296;2022-07-03T10:13:16;5;5;
73623;PMS5003;61921;53.226;-1.296;2022-07-03T10:15:42;4;4;
73623;PMS5003;61921;53.226;-1.296;2022-07-03T10:18:07;6;6;
73623;PMS5003;61921;53.226;-1.296;2022-07-03T10:30:18;7;6;
73623;PMS5003;61921;53.226;-1.296;2022-07-03T10:32:44;3;3;
73623;PMS5003;61921;53.226;-1.296;2022-07-03T10:35:08;5;5;
73623;PMS5003;61921;53.226;-1.296;2022-07-03T10:37:36;8;8;
73623;PMS5003;61921;53.226;-1.296;2022-07-03T10:40:00;5;5;
73623;PMS5003;61921;53.226;-1.296;2022-07-03T10:42:26;7;7;
73623;PMS5003;61921;53.226;-1.296;2022-07-03T10:44:50;6;6;
73623;PMS5003;61921;53.226;-1.296;2022-07-03T10:49:40;7;5;
73623;PMS5003;61921;53.226;-1.296;2022-07-03T10:52:05;7;7;
73623;PMS5003;61921;53.226;-1.296;2022-07-03T10:54:30;6;6;
73623;PMS5003;61921;53.226;-1.296;2022-07-03T10:57:04;6;4;
73623;PMS5003;61921;53.226;-1.296;2022-07-03T10:59:19;3;3;
73623;PMS5003;61921;53.226;-1.296;2022-07-03T11:01:44;4;4;
73623;PMS5003;61921;53.226;-1.296;2022-07-03T11:04:10;5;3;
73623;PMS5003;61921;53.226;-1.296;2022-07-03T11:09:01;5;3;
73623;PMS5003;61921;53.226;-1.296;2022-07-03T11:11:33;5;5;
73623;PMS5003;61921;53.226;-1.296;2022-07-03T11:18:40;4;4;
73623;PMS5003;61921;53.226;-1.296;2022-07-03T11:21:10;3;3;
73623;PMS5003;61921;53.226;-1.296;2022-07-03T11:23:33;3;3;
73623;PMS5003;61921;53.226;-1.296;2022-07-03T11:25:56;3;3;
73623;PMS5003;61921;53.226;-1.296;2022-07-03T11:33:11;5;4;
73623;PMS5003;61921;53.226;-1.296;2022-07-03T11:35:42;3;2;
73623;PMS5003;61921;53.226;-1.296;2022-07-03T11:38:01;3;3;
73623;PMS5003;61921;53.226;-1.296;2022-07-03T11:40:26;4;3;
73623;PMS5003;61921;53.226;-1.296;2022-07-03T11:42:51;5;4;
73623;PMS5003;61921;53.226;-1.296;2022-07-03T11:45:16;4;4;
73623;PMS5003;61921;53.226;-1.296;2022-07-03T11:47:41;4;4;
73623;PMS5003;61921;53.226;-1.296;2022-07-03T11:50:07;6;4;
73623;PMS5003;61921;53.226;-1.296;2022-07-03T11:52:31;3;3;
73623;PMS5003;61921;53.226;-1.296;2022-07-03T11:54:56;4;4;
73623;PMS5003;61921;53.226;-1.296;2022-07-03T11:57:21;3;2;
73623;PMS5003;61921;53.226;-1.296;2022-07-03T11:59:47;3;3;
73623;PMS5003;61921;53.226;-1.296;2022-07-03T12:02:12;4;4;
73623;PMS5003;61921;53.226;-1.296;2022-07-03T12:04:38;4;4;
73623;PMS5003;61921;53.226;-1.296;2022-07-03T12:07:02;3;3;
73623;PMS5003;61921;53.226;-1.296;2022-07-03T12:09:27;4;4;
73623;PMS5003;61921;53.226;-1.296;2022-07-03T12:11:53;3;2;
73623;PMS5003;61921;53.226;-1.296;2022-07-03T12:14:17;3;3;
73623;PMS5003;61921;53.226;-1.296;2022-07-03T12:16:42;3;3;
73623;PMS5003;61921;53.226;-1.296;2022-07-03T12:19:07;4;4;
73623;PMS5003;61921;53.226;-1.296;2022-07-03T12:21:35;4;4;
73623;PMS5003;61921;53.226;-1.296;2022-07-03T12:23:57;3;3;
73623;PMS5003;61921;53.226;-1.296;2022-07-03T12:26:28;4;4;
73623;PMS5003;61921;53.226;-1.296;2022-07-03T12:28:47;4;4;
73623;PMS5003;61921;53.226;-1.296;2022-07-03T12:31:13;2;2;
73623;PMS5003;61921;53.226;-1.296;2022-07-03T12:33:38;2;2;
73623;PMS5003;61921;53.226;-1.296;2022-07-03T12:36:03;3;3;
73623;PMS5003;61921;53.226;-1.296;2022-07-03T12:38:28;4;4;
73623;PMS5003;61921;53.226;-1.296;2022-07-03T12:43:18;4;4;
73623;PMS5003;61921;53.226;-1.296;2022-07-03T12:45:43;5;5;
73623;PMS5003;61921;53.226;-1.296;2022-07-03T12:48:08;3;3;
73623;PMS5003;61921;53.226;-1.296;2022-07-03T12:52:58;2;2;
73623;PMS5003;61921;53.226;-1.296;2022-07-03T12:55:24;2;2;
73623;PMS5003;61921;53.226;-1.296;2022-07-03T12:57:48;3;3;
73623;PMS5003;61921;53.226;-1.296;2022-07-03T13:00:14;3;3;
73623;PMS5003;61921;53.226;-1.296;2022-07-03T13:02:39;2;2;
73623;PMS5003;61921;53.226;-1.296;2022-07-03T13:07:29;2;2;
73623;PMS5003;61921;53.226;-1.296;2022-07-03T13:09:54;3;3;
73623;PMS5003;61921;53.226;-1.296;2022-07-03T13:12:20;3;3;
73623;PMS5003;61921;53.226;-1.296;2022-07-03T13:17:09;4;4;
73623;PMS5003;61921;53.226;-1.296;2022-07-03T13:19:34;2;2;
73623;PMS5003;61921;53.226;-1.296;2022-07-03T13:21:59;3;3;
73623;PMS5003;61921;53.226;-1.296;2022-07-03T13:24:24;3;3;
73623;PMS5003;61921;53.226;-1.296;2022-07-03T13:26:50;4;4;
73623;PMS5003;61921;53.226;-1.296;2022-07-03T13:29:14;2;2;
73623;PMS5003;61921;53.226;-1.296;2022-07-03T13:31:39;3;3;
73623;PMS5003;61921;53.226;-1.296;2022-07-03T13:34:04;3;3;
73623;PMS5003;61921;53.226;-1.296;2022-07-03T13:36:30;4;4;
73623;PMS5003;61921;53.226;-1.296;2022-07-03T13:38:55;5;3;
73623;PMS5003;61921;53.226;-1.296;2022-07-03T13:41:20;3;3;
73623;PMS5003;61921;53.226;-1.296;2022-07-03T13:43:45;7;7;
73623;PMS5003;61921;53.226;-1.296;2022-07-03T13:46:10;3;3;
73623;PMS5003;61921;53.226;-1.296;2022-07-03T13:48:35;4;4;
73623;PMS5003;61921;53.226;-1.296;2022-07-03T13:51:00;7;5;
73623;PMS5003;61921;53.226;-1.296;2022-07-03T13:53:25;4;4;
73623;PMS5003;61921;53.226;-1.296;2022-07-03T13:55:50;5;5;
73623;PMS5003;61921;53.226;-1.296;2022-07-03T14:01:24;3;3;
73623;PMS5003;61921;53.226;-1.296;2022-07-03T14:03:48;3;3;
73623;PMS5003;61921;53.226;-1.296;2022-07-03T14:06:13;4;4;
73623;PMS5003;61921;53.226;-1.296;2022-07-03T14:08:38;3;3;
73623;PMS5003;61921;53.226;-1.296;2022-07-03T14:11:03;4;4;
73623;PMS5003;61921;53.226;-1.296;2022-07-03T14:13:28;2;2;
73623;PMS5003;61921;53.226;-1.296;2022-07-03T14:15:53;3;3;
73623;PMS5003;61921;53.226;-1.296;2022-07-03T14:18:19;3;3;
73623;PMS5003;61921;53.226;-1.296;2022-07-03T14:20:43;3;3;
73623;PMS5003;61921;53.226;-1.296;2022-07-03T14:23:08;4;4;
73623;PMS5003;61921;53.226;-1.296;2022-07-03T14:25:34;5;3;
73623;PMS5003;61921;53.226;-1.296;2022-07-03T14:27:59;5;4;
73623;PMS5003;61921;53.226;-1.296;2022-07-03T14:30:25;3;3;
73623;PMS5003;61921;53.226;-1.296;2022-07-03T14:32:50;3;3;
73623;PMS5003;61921;53.226;-1.296;2022-07-03T14:35:15;5;4;
73623;PMS5003;61921;53.226;-1.296;2022-07-03T14:37:40;2;2;
73623;PMS5003;61921;53.226;-1.296;2022-07-03T14:40:05;4;4;
73623;PMS5003;61921;53.226;-1.296;2022-07-03T14:42:30;4;4;
73623;PMS5003;61921;53.226;-1.296;2022-07-03T14:44:55;4;4;
73623;PMS5003;61921;53.226;-1.296;2022-07-03T14:47:20;4;2;
73623;PMS5003;61921;53.226;-1.296;2022-07-03T14:49:45;4;4;
73623;PMS5003;61921;53.226;-1.296;2022-07-03T14:52:10;4;4;
73623;PMS5003;61921;53.226;-1.296;2022-07-03T14:54:35;4;4;
73623;PMS5003;61921;53.226;-1.296;2022-07-03T14:57:00;4;4;
73623;PMS5003;61921;53.226;-1.296;2022-07-03T14:59:27;6;5;
73623;PMS5003;61921;53.226;-1.296;2022-07-03T15:01:50;6;6;
73623;PMS5003;61921;53.226;-1.296;2022-07-03T15:04:18;8;8;
73623;PMS5003;61921;53.226;-1.296;2022-07-03T15:06:40;9;9;
73623;PMS5003;61921;53.226;-1.296;2022-07-03T15:09:06;6;6;
73623;PMS5003;61921;53.226;-1.296;2022-07-03T15:11:32;6;6;
73623;PMS5003;61921;53.226;-1.296;2022-07-03T15:13:56;11;11;
73623;PMS5003;61921;53.226;-1.296;2022-07-03T15:16:21;8;8;
73623;PMS5003;61921;53.226;-1.296;2022-07-03T15:18:46;9;7;
73623;PMS5003;61921;53.226;-1.296;2022-07-03T15:21:11;10;9;
73623;PMS5003;61921;53.226;-1.296;2022-07-03T15:23:36;8;8;
73623;PMS5003;61921;53.226;-1.296;2022-07-03T15:26:01;14;11;
73623;PMS5003;61921;53.226;-1.296;2022-07-03T15:28:27;45;42;
73623;PMS5003;61921;53.226;-1.296;2022-07-03T15:30:52;93;88;
73623;PMS5003;61921;53.226;-1.296;2022-07-03T15:33:18;142;130;
73623;PMS5003;61921;53.226;-1.296;2022-07-03T15:35:44;207;188;
73623;PMS5003;61921;53.226;-1.296;2022-07-03T15:38:10;224;207;
73623;PMS5003;61921;53.226;-1.296;2022-07-03T15:40:35;224;210;
73623;PMS5003;61921;53.226;-1.296;2022-07-03T15:43:06;225;207;
73623;PMS5003;61921;53.226;-1.296;2022-07-03T15:45:30;197;188;
73623;PMS5003;61921;53.226;-1.296;2022-07-03T15:47:52;186;174;
73623;PMS5003;61921;53.226;-1.296;2022-07-03T15:50:19;165;158;
73623;PMS5003;61921;53.226;-1.296;2022-07-03T15:52:41;142;131;
73623;PMS5003;61921;53.226;-1.296;2022-07-03T15:55:07;140;133;
73623;PMS5003;61921;53.226;-1.296;2022-07-03T15:57:33;124;114;
73623;PMS5003;61921;53.226;-1.296;2022-07-03T15:59:59;101;95;
73623;PMS5003;61921;53.226;-1.296;2022-07-03T16:02:25;101;92;
73623;PMS5003;61921;53.226;-1.296;2022-07-03T16:04:55;102;96;
73623;PMS5003;61921;53.226;-1.296;2022-07-03T16:07:15;114;109;
73623;PMS5003;61921;53.226;-1.296;2022-07-03T16:09:40;109;103;
73623;PMS5003;61921;53.226;-1.296;2022-07-03T16:12:06;109;109;
73623;PMS5003;61921;53.226;-1.296;2022-07-03T16:14:31;99;89;
73623;PMS5003;61921;53.226;-1.296;2022-07-03T16:16:56;86;81;
73623;PMS5003;61921;53.226;-1.296;2022-07-03T16:19:22;84;78;
73623;PMS5003;61921;53.226;-1.296;2022-07-03T16:21:47;59;56;
73623;PMS5003;61921;53.226;-1.296;2022-07-03T16:24:13;50;46;
73623;PMS5003;61921;53.226;-1.296;2022-07-03T16:26:39;28;25;
73623;PMS5003;61921;53.226;-1.296;2022-07-03T16:29:04;68;67;
73623;PMS5003;61921;53.226;-1.296;2022-07-03T16:31:32;64;62;
73623;PMS5003;61921;53.226;-1.296;2022-07-03T16:34:00;46;45;
73623;PMS5003;61921;53.226;-1.296;2022-07-03T16:36:21;38;35;
73623;PMS5003;61921;53.226;-1.296;2022-07-03T16:38:47;32;28;
73623;PMS5003;61921;53.226;-1.296;2022-07-03T16:41:12;26;24;
73623;PMS5003;61921;53.226;-1.296;2022-07-03T16:43:38;28;28;
73623;PMS5003;61921;53.226;-1.296;2022-07-03T16:46:03;27;27;
73623;PMS5003;61921;53.226;-1.296;2022-07-03T16:48:28;31;27;
73623;PMS5003;61921;53.226;-1.296;2022-07-03T16:50:55;35;33;
73623;PMS5003;61921;53.226;-1.296;2022-07-03T16:53:19;32;29;
73623;PMS5003;61921;53.226;-1.296;2022-07-03T16:55:45;25;25;
73623;PMS5003;61921;53.226;-1.296;2022-07-03T16:58:11;34;34;